sensor_id;sensor_type;location;lat;lon;timestamp;P1;durP1;ratioP1;P2;durP2;ratioP2
30048;SDS011;16879;50.852;15.602;2023-03-17T00:00:15;41.28;;;18.88;;
30048;SDS011;16879;50.852;15.602;2023-03-17T00:02:42;50.20;;;19.98;;
30048;SDS011;16879;50.852;15.602;2023-03-17T00:05:31;47.00;;;19.20;;
30048;SDS011;16879;50.852;15.602;2023-03-17T00:08:03;41.00;;;17.90;;
30048;SDS011;16879;50.852;15.602;2023-03-17T00:10:35;36.10;;;14.77;;
30048;SDS011;16879;50.852;15.602;2023-03-17T00:13:01;35.20;;;15.68;;
30048;SDS011;16879;50.852;15.602;2023-03-17T00:15:28;35.67;;;16.48;;
30048;SDS011;16879;50.852;15.602;2023-03-17T00:17:54;38.03;;;15.95;;
30048;SDS011;16879;50.852;15.602;2023-03-17T00:20:25;40.65;;;16.27;;
30048;SDS011;16879;50.852;15.602;2023-03-17T00:22:56;34.47;;;17.08;;
30048;SDS011;16879;50.852;15.602;2023-03-17T00:25:24;40.65;;;16.52;;
30048;SDS011;16879;50.852;15.602;2023-03-17T00:27:51;32.40;;;14.35;;
30048;SDS011;16879;50.852;15.602;2023-03-17T00:30:18;31.15;;;12.80;;
30048;SDS011;16879;50.852;15.602;2023-03-17T00:32:47;31.85;;;15.82;;
30048;SDS011;16879;50.852;15.602;2023-03-17T00:35:23;28.98;;;15.13;;
30048;SDS011;16879;50.852;15.602;2023-03-17T00:37:50;37.13;;;14.60;;
30048;SDS011;16879;50.852;15.602;2023-03-17T00:40:23;73.75;;;25.75;;
30048;SDS011;16879;50.852;15.602;2023-03-17T00:45:17;38.65;;;14.07;;
30048;SDS011;16879;50.852;15.602;2023-03-17T00:47:44;48.10;;;16.58;;
30048;SDS011;16879;50.852;15.602;2023-03-17T00:50:15;41.08;;;15.65;;
30048;SDS011;16879;50.852;15.602;2023-03-17T00:52:42;34.40;;;13.15;;
30048;SDS011;16879;50.852;15.602;2023-03-17T00:55:09;40.97;;;16.73;;
30048;SDS011;16879;50.852;15.602;2023-03-17T00:57:37;37.85;;;14.48;;
30048;SDS011;16879;50.852;15.602;2023-03-17T01:00:05;37.60;;;15.05;;
30048;SDS011;16879;50.852;15.602;2023-03-17T01:02:32;31.77;;;13.93;;
30048;SDS011;16879;50.852;15.602;2023-03-17T01:04:58;37.65;;;14.93;;
30048;SDS011;16879;50.852;15.602;2023-03-17T01:07:25;35.83;;;13.52;;
30048;SDS011;16879;50.852;15.602;2023-03-17T01:09:51;29.38;;;13.00;;
30048;SDS011;16879;50.852;15.602;2023-03-17T01:12:17;28.75;;;13.20;;
30048;SDS011;16879;50.852;15.602;2023-03-17T01:14:44;32.28;;;14.07;;
30048;SDS011;16879;50.852;15.602;2023-03-17T01:17:13;29.55;;;12.25;;
30048;SDS011;16879;50.852;15.602;2023-03-17T01:19:40;20.30;;;10.50;;
30048;SDS011;16879;50.852;15.602;2023-03-17T01:22:07;25.33;;;11.85;;
30048;SDS011;16879;50.852;15.602;2023-03-17T01:24:34;29.13;;;12.77;;
30048;SDS011;16879;50.852;15.602;2023-03-17T01:27:00;25.60;;;11.05;;
30048;SDS011;16879;50.852;15.602;2023-03-17T01:29:27;26.75;;;11.52;;
30048;SDS011;16879;50.852;15.602;2023-03-17T01:31:53;33.60;;;14.35;;
30048;SDS011;16879;50.852;15.602;2023-03-17T01:34:19;27.67;;;11.13;;
30048;SDS011;16879;50.852;15.602;2023-03-17T01:36:46;27.10;;;10.07;;
30048;SDS011;16879;50.852;15.602;2023-03-17T01:39:12;19.33;;;9.82;;
30048;SDS011;16879;50.852;15.602;2023-03-17T01:41:39;24.95;;;10.63;;
30048;SDS011;16879;50.852;15.602;2023-03-17T01:44:05;20.73;;;10.43;;
30048;SDS011;16879;50.852;15.602;2023-03-17T01:46:32;25.85;;;10.43;;
30048;SDS011;16879;50.852;15.602;2023-03-17T01:49:01;28.50;;;11.50;;
30048;SDS011;16879;50.852;15.602;2023-03-17T01:51:35;26.58;;;13.07;;
30048;SDS011;16879;50.852;15.602;2023-03-17T01:54:11;22.15;;;8.95;;
30048;SDS011;16879;50.852;15.602;2023-03-17T01:56:42;25.33;;;10.70;;
30048;SDS011;16879;50.852;15.602;2023-03-17T01:59:10;22.70;;;10.32;;
30048;SDS011;16879;50.852;15.602;2023-03-17T02:01:41;21.70;;;9.40;;
30048;SDS011;16879;50.852;15.602;2023-03-17T02:04:09;22.67;;;10.52;;
30048;SDS011;16879;50.852;15.602;2023-03-17T02:06:37;25.80;;;12.32;;
30048;SDS011;16879;50.852;15.602;2023-03-17T02:09:03;21.08;;;12.18;;
30048;SDS011;16879;50.852;15.602;2023-03-17T02:11:29;21.45;;;10.75;;
30048;SDS011;16879;50.852;15.602;2023-03-17T02:13:57;26.98;;;12.65;;
30048;SDS011;16879;50.852;15.602;2023-03-17T02:16:23;20.23;;;9.75;;
30048;SDS011;16879;50.852;15.602;2023-03-17T02:18:50;27.92;;;12.38;;
30048;SDS011;16879;50.852;15.602;2023-03-17T02:24:02;20.05;;;10.63;;
30048;SDS011;16879;50.852;15.602;2023-03-17T02:26:32;17.92;;;9.43;;
30048;SDS011;16879;50.852;15.602;2023-03-17T02:28:59;27.15;;;8.25;;
30048;SDS011;16879;50.852;15.602;2023-03-17T02:31:25;21.70;;;9.70;;
30048;SDS011;16879;50.852;15.602;2023-03-17T02:33:52;16.58;;;9.07;;
30048;SDS011;16879;50.852;15.602;2023-03-17T02:36:19;14.88;;;8.57;;
30048;SDS011;16879;50.852;15.602;2023-03-17T02:38:46;18.98;;;9.13;;
30048;SDS011;16879;50.852;15.602;2023-03-17T02:41:12;18.60;;;8.10;;
30048;SDS011;16879;50.852;15.602;2023-03-17T02:43:38;18.58;;;7.60;;
30048;SDS011;16879;50.852;15.602;2023-03-17T02:46:05;16.58;;;7.57;;
30048;SDS011;16879;50.852;15.602;2023-03-17T02:48:32;16.05;;;7.28;;
30048;SDS011;16879;50.852;15.602;2023-03-17T02:51:00;16.50;;;8.27;;
30048;SDS011;16879;50.852;15.602;2023-03-17T02:53:27;14.32;;;7.40;;
30048;SDS011;16879;50.852;15.602;2023-03-17T02:55:53;15.73;;;8.30;;
30048;SDS011;16879;50.852;15.602;2023-03-17T02:58:20;19.40;;;8.63;;
30048;SDS011;16879;50.852;15.602;2023-03-17T03:00:46;20.58;;;8.30;;
30048;SDS011;16879;50.852;15.602;2023-03-17T03:03:13;14.38;;;7.13;;
30048;SDS011;16879;50.852;15.602;2023-03-17T03:05:39;12.90;;;7.90;;
30048;SDS011;16879;50.852;15.602;2023-03-17T03:08:05;14.82;;;7.80;;
30048;SDS011;16879;50.852;15.602;2023-03-17T03:10:32;18.98;;;7.28;;
30048;SDS011;16879;50.852;15.602;2023-03-17T03:12:58;17.80;;;7.72;;
30048;SDS011;16879;50.852;15.602;2023-03-17T03:17:59;18.45;;;7.97;;
30048;SDS011;16879;50.852;15.602;2023-03-17T03:20:25;22.52;;;9.38;;
30048;SDS011;16879;50.852;15.602;2023-03-17T03:22:51;13.07;;;7.88;;
30048;SDS011;16879;50.852;15.602;2023-03-17T03:25:17;15.20;;;7.70;;
30048;SDS011;16879;50.852;15.602;2023-03-17T03:27:43;15.90;;;6.82;;
30048;SDS011;16879;50.852;15.602;2023-03-17T03:30:09;14.60;;;8.02;;
30048;SDS011;16879;50.852;15.602;2023-03-17T03:32:36;13.55;;;7.10;;
30048;SDS011;16879;50.852;15.602;2023-03-17T03:35:01;15.07;;;7.22;;
30048;SDS011;16879;50.852;15.602;2023-03-17T03:37:28;14.05;;;6.78;;
30048;SDS011;16879;50.852;15.602;2023-03-17T03:39:54;12.85;;;7.18;;
30048;SDS011;16879;50.852;15.602;2023-03-17T03:42:21;17.08;;;6.95;;
30048;SDS011;16879;50.852;15.602;2023-03-17T03:44:47;10.85;;;6.20;;
30048;SDS011;16879;50.852;15.602;2023-03-17T03:47:13;14.38;;;6.82;;
30048;SDS011;16879;50.852;15.602;2023-03-17T03:49:39;14.27;;;6.57;;
30048;SDS011;16879;50.852;15.602;2023-03-17T03:52:05;11.05;;;5.97;;
30048;SDS011;16879;50.852;15.602;2023-03-17T03:54:32;14.65;;;6.88;;
30048;SDS011;16879;50.852;15.602;2023-03-17T03:56:58;13.00;;;5.30;;
30048;SDS011;16879;50.852;15.602;2023-03-17T03:59:24;12.18;;;5.28;;
30048;SDS011;16879;50.852;15.602;2023-03-17T04:01:50;11.20;;;5.95;;
30048;SDS011;16879;50.852;15.602;2023-03-17T04:04:16;17.30;;;5.53;;
30048;SDS011;16879;50.852;15.602;2023-03-17T04:06:42;16.35;;;6.18;;
30048;SDS011;16879;50.852;15.602;2023-03-17T04:09:08;10.98;;;5.60;;
30048;SDS011;16879;50.852;15.602;2023-03-17T04:11:34;15.32;;;7.93;;
30048;SDS011;16879;50.852;15.602;2023-03-17T04:14:00;20.67;;;7.55;;
30048;SDS011;16879;50.852;15.602;2023-03-17T04:16:26;22.20;;;8.52;;
30048;SDS011;16879;50.852;15.602;2023-03-17T04:18:52;13.38;;;6.13;;
30048;SDS011;16879;50.852;15.602;2023-03-17T04:21:18;15.45;;;7.70;;
30048;SDS011;16879;50.852;15.602;2023-03-17T04:23:45;15.95;;;7.22;;
30048;SDS011;16879;50.852;15.602;2023-03-17T04:26:11;13.07;;;6.53;;
30048;SDS011;16879;50.852;15.602;2023-03-17T04:28:38;15.35;;;6.68;;
30048;SDS011;16879;50.852;15.602;2023-03-17T04:31:04;24.45;;;8.77;;
30048;SDS011;16879;50.852;15.602;2023-03-17T04:33:31;22.27;;;8.38;;
30048;SDS011;16879;50.852;15.602;2023-03-17T04:35:57;28.27;;;9.40;;
30048;SDS011;16879;50.852;15.602;2023-03-17T04:38:23;22.25;;;8.93;;
30048;SDS011;16879;50.852;15.602;2023-03-17T04:40:50;18.23;;;8.13;;
30048;SDS011;16879;50.852;15.602;2023-03-17T04:43:15;14.07;;;7.38;;
30048;SDS011;16879;50.852;15.602;2023-03-17T04:45:42;11.10;;;6.45;;
30048;SDS011;16879;50.852;15.602;2023-03-17T04:48:08;17.77;;;7.20;;
30048;SDS011;16879;50.852;15.602;2023-03-17T04:50:34;21.92;;;8.25;;
30048;SDS011;16879;50.852;15.602;2023-03-17T04:53:00;23.88;;;9.50;;
30048;SDS011;16879;50.852;15.602;2023-03-17T04:55:27;23.95;;;9.90;;
30048;SDS011;16879;50.852;15.602;2023-03-17T04:57:52;19.98;;;7.50;;
30048;SDS011;16879;50.852;15.602;2023-03-17T05:00:18;25.27;;;9.18;;
30048;SDS011;16879;50.852;15.602;2023-03-17T05:02:45;18.80;;;8.13;;
30048;SDS011;16879;50.852;15.602;2023-03-17T05:05:11;19.63;;;8.45;;
30048;SDS011;16879;50.852;15.602;2023-03-17T05:07:38;16.25;;;7.03;;
30048;SDS011;16879;50.852;15.602;2023-03-17T05:10:04;11.98;;;7.35;;
30048;SDS011;16879;50.852;15.602;2023-03-17T05:12:30;19.60;;;7.95;;
30048;SDS011;16879;50.852;15.602;2023-03-17T05:14:56;15.65;;;8.38;;
30048;SDS011;16879;50.852;15.602;2023-03-17T05:17:22;15.95;;;6.95;;
30048;SDS011;16879;50.852;15.602;2023-03-17T05:19:48;17.08;;;7.80;;
30048;SDS011;16879;50.852;15.602;2023-03-17T05:22:14;16.45;;;7.25;;
30048;SDS011;16879;50.852;15.602;2023-03-17T05:24:40;15.90;;;7.20;;
30048;SDS011;16879;50.852;15.602;2023-03-17T05:27:06;13.10;;;6.45;;
30048;SDS011;16879;50.852;15.602;2023-03-17T05:29:32;14.18;;;7.10;;
30048;SDS011;16879;50.852;15.602;2023-03-17T05:31:58;18.80;;;9.07;;
30048;SDS011;16879;50.852;15.602;2023-03-17T05:34:24;16.08;;;8.00;;
30048;SDS011;16879;50.852;15.602;2023-03-17T05:36:51;20.63;;;8.13;;
30048;SDS011;16879;50.852;15.602;2023-03-17T05:39:17;22.70;;;12.68;;
30048;SDS011;16879;50.852;15.602;2023-03-17T05:41:43;17.73;;;9.18;;
30048;SDS011;16879;50.852;15.602;2023-03-17T05:44:10;15.57;;;8.32;;
30048;SDS011;16879;50.852;15.602;2023-03-17T05:46:35;18.05;;;8.98;;
30048;SDS011;16879;50.852;15.602;2023-03-17T05:49:02;19.70;;;8.98;;
30048;SDS011;16879;50.852;15.602;2023-03-17T05:51:28;23.63;;;9.65;;
30048;SDS011;16879;50.852;15.602;2023-03-17T05:53:54;27.42;;;10.95;;
30048;SDS011;16879;50.852;15.602;2023-03-17T05:56:20;25.52;;;11.57;;
30048;SDS011;16879;50.852;15.602;2023-03-17T05:58:46;22.63;;;9.82;;
30048;SDS011;16879;50.852;15.602;2023-03-17T06:01:14;28.65;;;10.43;;
30048;SDS011;16879;50.852;15.602;2023-03-17T06:03:40;27.67;;;10.68;;
30048;SDS011;16879;50.852;15.602;2023-03-17T06:06:06;44.35;;;16.23;;
30048;SDS011;16879;50.852;15.602;2023-03-17T06:08:33;52.35;;;16.30;;
30048;SDS011;16879;50.852;15.602;2023-03-17T06:10:59;58.00;;;19.20;;
30048;SDS011;16879;50.852;15.602;2023-03-17T06:13:25;38.70;;;15.10;;
30048;SDS011;16879;50.852;15.602;2023-03-17T06:15:51;44.67;;;15.50;;
30048;SDS011;16879;50.852;15.602;2023-03-17T06:18:17;46.35;;;16.40;;
30048;SDS011;16879;50.852;15.602;2023-03-17T06:20:44;58.13;;;17.33;;
30048;SDS011;16879;50.852;15.602;2023-03-17T06:23:10;47.13;;;14.98;;
30048;SDS011;16879;50.852;15.602;2023-03-17T06:25:36;34.97;;;14.50;;
30048;SDS011;16879;50.852;15.602;2023-03-17T06:28:02;46.05;;;15.63;;
30048;SDS011;16879;50.852;15.602;2023-03-17T06:30:32;48.85;;;16.02;;
30048;SDS011;16879;50.852;15.602;2023-03-17T06:32:59;58.45;;;20.95;;
30048;SDS011;16879;50.852;15.602;2023-03-17T06:35:26;59.28;;;20.60;;
30048;SDS011;16879;50.852;15.602;2023-03-17T06:37:53;68.72;;;19.45;;
30048;SDS011;16879;50.852;15.602;2023-03-17T06:40:19;67.40;;;20.67;;
30048;SDS011;16879;50.852;15.602;2023-03-17T06:42:45;81.78;;;26.67;;
30048;SDS011;16879;50.852;15.602;2023-03-17T06:45:11;56.15;;;18.95;;
30048;SDS011;16879;50.852;15.602;2023-03-17T06:47:38;56.30;;;20.08;;
30048;SDS011;16879;50.852;15.602;2023-03-17T06:50:08;63.85;;;23.55;;
30048;SDS011;16879;50.852;15.602;2023-03-17T06:52:36;61.03;;;22.52;;
30048;SDS011;16879;50.852;15.602;2023-03-17T06:55:03;74.68;;;24.42;;
30048;SDS011;16879;50.852;15.602;2023-03-17T06:57:30;96.22;;;33.58;;
30048;SDS011;16879;50.852;15.602;2023-03-17T06:59:56;90.38;;;32.17;;
30048;SDS011;16879;50.852;15.602;2023-03-17T07:02:22;93.85;;;35.65;;
30048;SDS011;16879;50.852;15.602;2023-03-17T07:04:49;90.95;;;34.63;;
30048;SDS011;16879;50.852;15.602;2023-03-17T07:07:16;68.50;;;29.48;;
30048;SDS011;16879;50.852;15.602;2023-03-17T07:09:44;59.08;;;26.48;;
30048;SDS011;16879;50.852;15.602;2023-03-17T07:12:11;55.33;;;23.95;;
30048;SDS011;16879;50.852;15.602;2023-03-17T07:14:38;48.92;;;19.75;;
30048;SDS011;16879;50.852;15.602;2023-03-17T07:17:04;46.63;;;20.55;;
30048;SDS011;16879;50.852;15.602;2023-03-17T07:19:31;39.22;;;16.38;;
30048;SDS011;16879;50.852;15.602;2023-03-17T07:21:59;17.55;;;7.43;;
30048;SDS011;16879;50.852;15.602;2023-03-17T07:24:25;15.80;;;8.10;;
30048;SDS011;16879;50.852;15.602;2023-03-17T07:26:51;12.65;;;7.18;;
30048;SDS011;16879;50.852;15.602;2023-03-17T07:29:17;14.35;;;6.55;;
30048;SDS011;16879;50.852;15.602;2023-03-17T07:31:45;12.02;;;5.55;;
30048;SDS011;16879;50.852;15.602;2023-03-17T07:34:12;11.80;;;5.35;;
30048;SDS011;16879;50.852;15.602;2023-03-17T07:36:38;11.75;;;6.30;;
30048;SDS011;16879;50.852;15.602;2023-03-17T07:39:04;10.68;;;5.97;;
30048;SDS011;16879;50.852;15.602;2023-03-17T07:41:31;13.45;;;6.50;;
30048;SDS011;16879;50.852;15.602;2023-03-17T07:43:56;10.48;;;6.55;;
30048;SDS011;16879;50.852;15.602;2023-03-17T07:46:22;15.15;;;7.50;;
30048;SDS011;16879;50.852;15.602;2023-03-17T07:48:48;12.88;;;7.18;;
30048;SDS011;16879;50.852;15.602;2023-03-17T07:51:16;9.60;;;5.90;;
30048;SDS011;16879;50.852;15.602;2023-03-17T07:53:45;10.80;;;5.38;;
30048;SDS011;16879;50.852;15.602;2023-03-17T07:56:11;11.27;;;5.85;;
30048;SDS011;16879;50.852;15.602;2023-03-17T07:58:38;16.45;;;5.22;;
30048;SDS011;16879;50.852;15.602;2023-03-17T08:01:04;9.20;;;5.43;;
30048;SDS011;16879;50.852;15.602;2023-03-17T08:03:30;10.65;;;5.43;;
30048;SDS011;16879;50.852;15.602;2023-03-17T08:05:56;9.95;;;5.75;;
30048;SDS011;16879;50.852;15.602;2023-03-17T08:08:24;11.35;;;5.18;;
30048;SDS011;16879;50.852;15.602;2023-03-17T08:10:51;9.80;;;4.72;;
30048;SDS011;16879;50.852;15.602;2023-03-17T08:13:17;9.40;;;5.32;;
30048;SDS011;16879;50.852;15.602;2023-03-17T08:15:43;14.60;;;6.25;;
30048;SDS011;16879;50.852;15.602;2023-03-17T08:18:10;11.23;;;5.50;;
30048;SDS011;16879;50.852;15.602;2023-03-17T08:20:36;6.18;;;4.80;;
30048;SDS011;16879;50.852;15.602;2023-03-17T08:23:03;10.80;;;5.40;;
30048;SDS011;16879;50.852;15.602;2023-03-17T08:25:30;6.30;;;4.20;;
30048;SDS011;16879;50.852;15.602;2023-03-17T08:27:56;11.70;;;4.57;;
30048;SDS011;16879;50.852;15.602;2023-03-17T08:30:22;11.13;;;4.60;;
30048;SDS011;16879;50.852;15.602;2023-03-17T08:32:48;10.10;;;3.85;;
30048;SDS011;16879;50.852;15.602;2023-03-17T08:35:14;7.15;;;4.25;;
30048;SDS011;16879;50.852;15.602;2023-03-17T08:37:44;17.60;;;7.93;;
30048;SDS011;16879;50.852;15.602;2023-03-17T08:40:12;18.10;;;9.32;;
30048;SDS011;16879;50.852;15.602;2023-03-17T08:42:41;16.77;;;8.15;;
30048;SDS011;16879;50.852;15.602;2023-03-17T08:45:07;7.10;;;4.10;;
30048;SDS011;16879;50.852;15.602;2023-03-17T08:47:35;7.30;;;4.07;;
30048;SDS011;16879;50.852;15.602;2023-03-17T08:50:02;9.15;;;6.53;;
30048;SDS011;16879;50.852;15.602;2023-03-17T08:52:29;14.85;;;7.25;;
30048;SDS011;16879;50.852;15.602;2023-03-17T08:54:55;11.93;;;6.40;;
30048;SDS011;16879;50.852;15.602;2023-03-17T08:57:21;12.13;;;6.50;;
30048;SDS011;16879;50.852;15.602;2023-03-17T08:59:48;6.80;;;4.13;;
30048;SDS011;16879;50.852;15.602;2023-03-17T09:02:15;6.50;;;3.63;;
30048;SDS011;16879;50.852;15.602;2023-03-17T09:04:41;5.05;;;3.78;;
30048;SDS011;16879;50.852;15.602;2023-03-17T09:07:07;7.95;;;3.17;;
30048;SDS011;16879;50.852;15.602;2023-03-17T09:09:34;8.55;;;4.25;;
30048;SDS011;16879;50.852;15.602;2023-03-17T09:12:02;14.70;;;4.40;;
30048;SDS011;16879;50.852;15.602;2023-03-17T09:14:30;8.23;;;4.40;;
30048;SDS011;16879;50.852;15.602;2023-03-17T09:16:56;11.63;;;5.65;;
30048;SDS011;16879;50.852;15.602;2023-03-17T09:19:22;13.45;;;6.53;;
30048;SDS011;16879;50.852;15.602;2023-03-17T09:21:49;8.73;;;4.22;;
30048;SDS011;16879;50.852;15.602;2023-03-17T09:24:16;12.18;;;5.43;;
30048;SDS011;16879;50.852;15.602;2023-03-17T09:26:43;6.72;;;3.97;;
30048;SDS011;16879;50.852;15.602;2023-03-17T09:29:09;5.65;;;3.30;;
30048;SDS011;16879;50.852;15.602;2023-03-17T09:31:35;5.93;;;3.28;;
30048;SDS011;16879;50.852;15.602;2023-03-17T09:34:02;8.07;;;4.40;;
30048;SDS011;16879;50.852;15.602;2023-03-17T09:36:29;8.23;;;3.55;;
30048;SDS011;16879;50.852;15.602;2023-03-17T09:38:56;7.13;;;3.33;;
30048;SDS011;16879;50.852;15.602;2023-03-17T09:41:28;8.45;;;3.88;;
30048;SDS011;16879;50.852;15.602;2023-03-17T09:44:17;7.50;;;4.00;;
30048;SDS011;16879;50.852;15.602;2023-03-17T09:49:12;5.53;;;2.83;;
30048;SDS011;16879;50.852;15.602;2023-03-17T09:51:39;5.80;;;3.67;;
30048;SDS011;16879;50.852;15.602;2023-03-17T09:54:17;6.72;;;3.22;;
30048;SDS011;16879;50.852;15.602;2023-03-17T09:57:02;6.10;;;3.10;;
30048;SDS011;16879;50.852;15.602;2023-03-17T09:59:43;9.63;;;3.20;;
30048;SDS011;16879;50.852;15.602;2023-03-17T10:04:43;5.97;;;3.28;;
30048;SDS011;16879;50.852;15.602;2023-03-17T10:07:10;4.80;;;2.60;;
30048;SDS011;16879;50.852;15.602;2023-03-17T10:10:14;4.55;;;2.67;;
30048;SDS011;16879;50.852;15.602;2023-03-17T10:15:22;3.95;;;2.20;;
30048;SDS011;16879;50.852;15.602;2023-03-17T10:18:00;3.28;;;1.85;;
30048;SDS011;16879;50.852;15.602;2023-03-17T10:20:34;2.80;;;1.73;;
30048;SDS011;16879;50.852;15.602;2023-03-17T10:23:26;3.17;;;1.80;;
30048;SDS011;16879;50.852;15.602;2023-03-17T10:25:59;3.22;;;1.80;;
30048;SDS011;16879;50.852;15.602;2023-03-17T10:28:28;3.20;;;1.55;;
30048;SDS011;16879;50.852;15.602;2023-03-17T10:31:14;3.42;;;1.98;;
30048;SDS011;16879;50.852;15.602;2023-03-17T10:33:42;2.25;;;1.58;;
30048;SDS011;16879;50.852;15.602;2023-03-17T10:36:09;4.78;;;2.50;;
30048;SDS011;16879;50.852;15.602;2023-03-17T10:38:36;1.98;;;1.58;;
30048;SDS011;16879;50.852;15.602;2023-03-17T10:41:06;2.70;;;1.75;;
30048;SDS011;16879;50.852;15.602;2023-03-17T10:43:36;3.78;;;1.40;;
30048;SDS011;16879;50.852;15.602;2023-03-17T10:46:19;3.45;;;1.75;;
30048;SDS011;16879;50.852;15.602;2023-03-17T10:48:55;3.88;;;1.70;;
30048;SDS011;16879;50.852;15.602;2023-03-17T10:51:39;4.50;;;1.90;;
30048;SDS011;16879;50.852;15.602;2023-03-17T10:54:15;3.25;;;1.60;;
30048;SDS011;16879;50.852;15.602;2023-03-17T10:56:42;2.33;;;1.50;;
30048;SDS011;16879;50.852;15.602;2023-03-17T10:59:18;3.97;;;1.75;;
30048;SDS011;16879;50.852;15.602;2023-03-17T11:01:55;2.63;;;1.42;;
30048;SDS011;16879;50.852;15.602;2023-03-17T11:04:39;1.92;;;1.60;;
30048;SDS011;16879;50.852;15.602;2023-03-17T11:09:41;2.08;;;1.30;;
30048;SDS011;16879;50.852;15.602;2023-03-17T11:15:14;4.07;;;1.75;;
30048;SDS011;16879;50.852;15.602;2023-03-17T11:17:44;2.42;;;1.55;;
30048;SDS011;16879;50.852;15.602;2023-03-17T11:23:00;4.97;;;1.63;;
30048;SDS011;16879;50.852;15.602;2023-03-17T11:25:38;1.77;;;1.40;;
30048;SDS011;16879;50.852;15.602;2023-03-17T11:28:19;2.15;;;1.00;;
30048;SDS011;16879;50.852;15.602;2023-03-17T11:31:09;2.20;;;1.30;;
30048;SDS011;16879;50.852;15.602;2023-03-17T11:36:28;3.08;;;1.63;;
30048;SDS011;16879;50.852;15.602;2023-03-17T11:39:02;1.73;;;1.30;;
30048;SDS011;16879;50.852;15.602;2023-03-17T11:41:41;2.47;;;1.45;;
30048;SDS011;16879;50.852;15.602;2023-03-17T11:44:29;2.30;;;1.17;;
30048;SDS011;16879;50.852;15.602;2023-03-17T11:50:39;2.05;;;1.23;;
30048;SDS011;16879;50.852;15.602;2023-03-17T11:57:57;3.60;;;1.00;;
30048;SDS011;16879;50.852;15.602;2023-03-17T12:00:35;1.80;;;1.10;;
30048;SDS011;16879;50.852;15.602;2023-03-17T12:05:43;1.50;;;1.35;;
30048;SDS011;16879;50.852;15.602;2023-03-17T12:08:27;2.08;;;1.10;;
30048;SDS011;16879;50.852;15.602;2023-03-17T12:11:16;2.13;;;1.40;;
30048;SDS011;16879;50.852;15.602;2023-03-17T12:21:36;2.92;;;1.67;;
30048;SDS011;16879;50.852;15.602;2023-03-17T12:24:26;3.33;;;1.92;;
30048;SDS011;16879;50.852;15.602;2023-03-17T12:27:41;3.15;;;1.60;;
30048;SDS011;16879;50.852;15.602;2023-03-17T12:30:24;1.90;;;1.50;;
30048;SDS011;16879;50.852;15.602;2023-03-17T12:32:59;2.90;;;1.55;;
30048;SDS011;16879;50.852;15.602;2023-03-17T12:35:42;3.08;;;1.70;;
30048;SDS011;16879;50.852;15.602;2023-03-17T12:38:11;4.28;;;1.80;;
30048;SDS011;16879;50.852;15.602;2023-03-17T12:48:38;4.00;;;2.30;;
30048;SDS011;16879;50.852;15.602;2023-03-17T12:53:37;2.72;;;1.52;;
30048;SDS011;16879;50.852;15.602;2023-03-17T12:56:15;2.42;;;1.52;;
30048;SDS011;16879;50.852;15.602;2023-03-17T12:59:08;3.22;;;1.70;;
30048;SDS011;16879;50.852;15.602;2023-03-17T13:01:39;3.55;;;1.88;;
30048;SDS011;16879;50.852;15.602;2023-03-17T13:06:44;3.75;;;1.70;;
30048;SDS011;16879;50.852;15.602;2023-03-17T13:10:09;2.50;;;1.63;;
30048;SDS011;16879;50.852;15.602;2023-03-17T13:12:04;2.72;;;1.88;;
30048;SDS011;16879;50.852;15.602;2023-03-17T13:14:46;4.57;;;1.77;;
30048;SDS011;16879;50.852;15.602;2023-03-17T13:22:39;4.13;;;2.30;;
30048;SDS011;16879;50.852;15.602;2023-03-17T13:27:51;4.68;;;1.92;;
30048;SDS011;16879;50.852;15.602;2023-03-17T13:35:36;3.28;;;1.58;;
30048;SDS011;16879;50.852;15.602;2023-03-17T13:40:43;2.30;;;1.92;;
30048;SDS011;16879;50.852;15.602;2023-03-17T13:48:45;4.07;;;2.28;;
30048;SDS011;16879;50.852;15.602;2023-03-17T13:51:18;4.00;;;1.77;;
30048;SDS011;16879;50.852;15.602;2023-03-17T13:53:56;1.70;;;1.08;;
30048;SDS011;16879;50.852;15.602;2023-03-17T14:01:28;4.65;;;3.17;;
30048;SDS011;16879;50.852;15.602;2023-03-17T14:03:57;4.20;;;2.65;;
30048;SDS011;16879;50.852;15.602;2023-03-17T14:06:28;5.75;;;2.97;;
30048;SDS011;16879;50.852;15.602;2023-03-17T14:09:06;5.20;;;2.60;;
30048;SDS011;16879;50.852;15.602;2023-03-17T14:11:39;3.67;;;2.58;;
30048;SDS011;16879;50.852;15.602;2023-03-17T14:16:42;6.15;;;3.53;;
30048;SDS011;16879;50.852;15.602;2023-03-17T14:21:44;7.20;;;3.58;;
30048;SDS011;16879;50.852;15.602;2023-03-17T14:24:18;6.30;;;3.75;;
30048;SDS011;16879;50.852;15.602;2023-03-17T14:26:45;14.20;;;6.22;;
30048;SDS011;16879;50.852;15.602;2023-03-17T14:29:13;13.15;;;4.07;;
30048;SDS011;16879;50.852;15.602;2023-03-17T14:31:40;7.35;;;2.45;;
30048;SDS011;16879;50.852;15.602;2023-03-17T14:34:13;3.03;;;2.00;;
30048;SDS011;16879;50.852;15.602;2023-03-17T14:36:40;3.23;;;1.80;;
30048;SDS011;16879;50.852;15.602;2023-03-17T14:39:06;3.55;;;2.53;;
30048;SDS011;16879;50.852;15.602;2023-03-17T14:41:33;4.82;;;1.60;;
30048;SDS011;16879;50.852;15.602;2023-03-17T14:44:00;4.80;;;2.53;;
30048;SDS011;16879;50.852;15.602;2023-03-17T14:46:31;10.10;;;3.47;;
30048;SDS011;16879;50.852;15.602;2023-03-17T14:51:34;4.00;;;2.78;;
30048;SDS011;16879;50.852;15.602;2023-03-17T14:54:02;4.75;;;2.85;;
30048;SDS011;16879;50.852;15.602;2023-03-17T14:56:35;3.30;;;2.63;;
30048;SDS011;16879;50.852;15.602;2023-03-17T14:59:03;3.35;;;2.10;;
30048;SDS011;16879;50.852;15.602;2023-03-17T15:01:35;2.95;;;2.13;;
30048;SDS011;16879;50.852;15.602;2023-03-17T15:04:11;2.58;;;2.17;;
30048;SDS011;16879;50.852;15.602;2023-03-17T15:06:53;2.90;;;1.77;;
30048;SDS011;16879;50.852;15.602;2023-03-17T15:09:27;2.47;;;1.70;;
30048;SDS011;16879;50.852;15.602;2023-03-17T15:11:54;5.07;;;2.20;;
30048;SDS011;16879;50.852;15.602;2023-03-17T15:14:27;2.70;;;1.60;;
30048;SDS011;16879;50.852;15.602;2023-03-17T15:16:54;2.70;;;1.80;;
30048;SDS011;16879;50.852;15.602;2023-03-17T15:21:47;4.40;;;2.90;;
30048;SDS011;16879;50.852;15.602;2023-03-17T15:26:58;5.30;;;2.80;;
30048;SDS011;16879;50.852;15.602;2023-03-17T15:29:32;3.22;;;2.50;;
30048;SDS011;16879;50.852;15.602;2023-03-17T15:31:59;4.38;;;2.42;;
30048;SDS011;16879;50.852;15.602;2023-03-17T15:34:27;3.78;;;2.72;;
30048;SDS011;16879;50.852;15.602;2023-03-17T15:36:54;5.35;;;2.88;;
30048;SDS011;16879;50.852;15.602;2023-03-17T15:39:20;7.80;;;3.88;;
30048;SDS011;16879;50.852;15.602;2023-03-17T15:41:46;5.60;;;3.28;;
30048;SDS011;16879;50.852;15.602;2023-03-17T15:44:12;5.85;;;3.33;;
30048;SDS011;16879;50.852;15.602;2023-03-17T15:46:38;6.40;;;3.75;;
30048;SDS011;16879;50.852;15.602;2023-03-17T15:49:09;5.00;;;3.88;;
30048;SDS011;16879;50.852;15.602;2023-03-17T15:51:35;5.60;;;4.50;;
30048;SDS011;16879;50.852;15.602;2023-03-17T15:54:02;4.18;;;3.78;;
30048;SDS011;16879;50.852;15.602;2023-03-17T15:56:28;4.95;;;3.22;;
30048;SDS011;16879;50.852;15.602;2023-03-17T15:58:54;8.10;;;4.13;;
30048;SDS011;16879;50.852;15.602;2023-03-17T16:01:21;9.15;;;5.38;;
30048;SDS011;16879;50.852;15.602;2023-03-17T16:03:47;8.82;;;5.57;;
30048;SDS011;16879;50.852;15.602;2023-03-17T16:06:17;11.25;;;8.48;;
30048;SDS011;16879;50.852;15.602;2023-03-17T16:08:44;10.07;;;7.13;;
30048;SDS011;16879;50.852;15.602;2023-03-17T16:11:18;11.65;;;6.75;;